sensor_id;sensor_type;location;lat;lon;timestamp;pressure;altitude;pressure_sealevel;temperature;humidity
57102;BME280;42982;54.558;18.508;2023-05-31T00:00:55;101832.34;;;11.79;79.17
57102;BME280;42982;54.558;18.508;2023-05-31T00:01:57;101836.44;;;11.81;79.43
57102;BME280;42982;54.558;18.508;2023-05-31T00:02:58;101835.63;;;11.81;78.99
57102;BME280;42982;54.558;18.508;2023-05-31T00:04:03;101830.22;;;11.81;79.10
57102;BME280;42982;54.558;18.508;2023-05-31T00:05:05;101829.72;;;11.84;78.99
57102;BME280;42982;54.558;18.508;2023-05-31T00:06:11;101828.69;;;11.85;78.77
57102;BME280;42982;54.558;18.508;2023-05-31T00:07:33;101836.19;;;11.83;78.81
57102;BME280;42982;54.558;18.508;2023-05-31T00:08:35;101835.94;;;11.85;78.81
57102;BME280;42982;54.558;18.508;2023-05-31T00:09:36;101837.59;;;11.86;78.59
57102;BME280;42982;54.558;18.508;2023-05-31T00:10:40;101834.31;;;11.83;78.45
57102;BME280;42982;54.558;18.508;2023-05-31T00:11:45;101835.63;;;11.81;78.45
57102;BME280;42982;54.558;18.508;2023-05-31T00:12:47;101829.66;;;11.79;78.13
57102;BME280;42982;54.558;18.508;2023-05-31T00:13:49;101828.03;;;11.73;77.87
57102;BME280;42982;54.558;18.508;2023-05-31T00:14:51;101835.53;;;11.71;78.06
57102;BME280;42982;54.558;18.508;2023-05-31T00:15:52;101826.88;;;11.69;77.90
57102;BME280;42982;54.558;18.508;2023-05-31T00:16:54;101823.44;;;11.73;78.20
57102;BME280;42982;54.558;18.508;2023-05-31T00:17:55;101821.59;;;11.79;77.70
57102;BME280;42982;54.558;18.508;2023-05-31T00:18:57;101832.13;;;11.80;77.45
57102;BME280;42982;54.558;18.508;2023-05-31T00:20:02;101831.81;;;11.77;77.49
57102;BME280;42982;54.558;18.508;2023-05-31T00:21:04;101833.72;;;11.76;77.38
57102;BME280;42982;54.558;18.508;2023-05-31T00:22:08;101835.31;;;11.77;77.48
57102;BME280;42982;54.558;18.508;2023-05-31T00:23:10;101837.25;;;11.82;77.55
57102;BME280;42982;54.558;18.508;2023-05-31T00:24:12;101837.25;;;11.82;77.14
57102;BME280;42982;54.558;18.508;2023-05-31T00:25:14;101843.47;;;11.82;77.07
57102;BME280;42982;54.558;18.508;2023-05-31T00:26:18;101843.13;;;11.79;76.76
57102;BME280;42982;54.558;18.508;2023-05-31T00:27:21;101836.34;;;11.71;76.85
57102;BME280;42982;54.558;18.508;2023-05-31T00:28:26;101837.66;;;11.69;77.22
57102;BME280;42982;54.558;18.508;2023-05-31T00:29:28;101833.34;;;11.68;77.30
57102;BME280;42982;54.558;18.508;2023-05-31T00:30:30;101836.34;;;11.71;77.59
57102;BME280;42982;54.558;18.508;2023-05-31T00:31:32;101835.84;;;11.74;77.40
57102;BME280;42982;54.558;18.508;2023-05-31T00:32:34;101836.94;;;11.78;77.36
57102;BME280;42982;54.558;18.508;2023-05-31T00:33:37;101840.19;;;11.80;77.08
57102;BME280;42982;54.558;18.508;2023-05-31T00:34:38;101846.97;;;11.83;77.02
57102;BME280;42982;54.558;18.508;2023-05-31T00:35:40;101848.28;;;11.80;76.84
57102;BME280;42982;54.558;18.508;2023-05-31T00:36:42;101856.38;;;11.80;76.50
57102;BME280;42982;54.558;18.508;2023-05-31T00:37:46;101852.59;;;11.81;76.96
57102;BME280;42982;54.558;18.508;2023-05-31T00:38:48;101849.66;;;11.83;76.64
57102;BME280;42982;54.558;18.508;2023-05-31T00:39:53;101844.03;;;11.85;76.71
57102;BME280;42982;54.558;18.508;2023-05-31T00:40:57;101847.22;;;11.81;76.25
57102;BME280;42982;54.558;18.508;2023-05-31T00:41:58;101841.81;;;11.81;76.77
57102;BME280;42982;54.558;18.508;2023-05-31T00:43:01;101843.97;;;11.79;76.41
57102;BME280;42982;54.558;18.508;2023-05-31T00:44:03;101839.91;;;11.77;76.41
57102;BME280;42982;54.558;18.508;2023-05-31T00:45:07;101843.34;;;11.72;76.41
57102;BME280;42982;54.558;18.508;2023-05-31T00:46:20;101838.97;;;11.66;76.25
57102;BME280;42982;54.558;18.508;2023-05-31T00:47:24;101838.97;;;11.66;76.66
57102;BME280;42982;54.558;18.508;2023-05-31T00:48:29;101840.34;;;11.69;76.83
57102;BME280;42982;54.558;18.508;2023-05-31T00:49:30;101846.31;;;11.71;76.57
57102;BME280;42982;54.558;18.508;2023-05-31T00:50:32;101845.75;;;11.69;76.27
57102;BME280;42982;54.558;18.508;2023-05-31T00:51:35;101844.34;;;11.66;76.48
57102;BME280;42982;54.558;18.508;2023-05-31T00:52:37;101837.34;;;11.65;76.78
57102;BME280;42982;54.558;18.508;2023-05-31T00:53:40;101845.72;;;11.64;76.70
57102;BME280;42982;54.558;18.508;2023-05-31T00:54:41;101843.44;;;11.55;76.59
57102;BME280;42982;54.558;18.508;2023-05-31T00:55:45;101846.91;;;11.51;76.73
57102;BME280;42982;54.558;18.508;2023-05-31T00:56:47;101847.16;;;11.49;77.01
57102;BME280;42982;54.558;18.508;2023-05-31T00:57:51;101839.34;;;11.48;76.52
57102;BME280;42982;54.558;18.508;2023-05-31T00:58:54;101835.81;;;11.47;76.66
57102;BME280;42982;54.558;18.508;2023-05-31T00:59:57;101835.31;;;11.50;76.52
57102;BME280;42982;54.558;18.508;2023-05-31T01:00:59;101837.19;;;11.50;76.29
57102;BME280;42982;54.558;18.508;2023-05-31T01:02:02;101841.19;;;11.47;76.33
57102;BME280;42982;54.558;18.508;2023-05-31T01:03:06;101841.47;;;11.46;76.06
57102;BME280;42982;54.558;18.508;2023-05-31T01:04:09;101845.78;;;11.47;76.15
57102;BME280;42982;54.558;18.508;2023-05-31T01:05:14;101837.66;;;11.42;75.78
57102;BME280;42982;54.558;18.508;2023-05-31T01:06:16;101836.47;;;11.32;75.49
57102;BME280;42982;54.558;18.508;2023-05-31T01:07:18;101838.88;;;11.29;75.89
57102;BME280;42982;54.558;18.508;2023-05-31T01:08:19;101836.97;;;11.29;75.56
57102;BME280;42982;54.558;18.508;2023-05-31T01:09:24;101841.00;;;11.27;75.44
57102;BME280;42982;54.558;18.508;2023-05-31T01:10:27;101843.38;;;11.23;75.83
57102;BME280;42982;54.558;18.508;2023-05-31T01:14:16;101835.41;;;11.11;76.09
57102;BME280;42982;54.558;18.508;2023-05-31T01:15:27;101837.28;;;11.11;76.05
57102;BME280;42982;54.558;18.508;2023-05-31T01:16:34;101837.78;;;11.08;76.22
57102;BME280;42982;54.558;18.508;2023-05-31T01:18:49;101841.56;;;11.07;76.41
57102;BME280;42982;54.558;18.508;2023-05-31T01:20:00;101832.91;;;11.05;76.67
57102;BME280;42982;54.558;18.508;2023-05-31T01:21:04;101844.69;;;10.99;77.25
57102;BME280;42982;54.558;18.508;2023-05-31T01:23:04;101837.69;;;10.98;77.34
57102;BME280;42982;54.558;18.508;2023-05-31T01:26:45;101838.50;;;11.20;78.35
57102;BME280;42982;54.558;18.508;2023-05-31T01:27:50;101846.59;;;11.25;78.31
57102;BME280;42982;54.558;18.508;2023-05-31T01:28:59;101840.69;;;11.23;77.77
57102;BME280;42982;54.558;18.508;2023-05-31T01:30:02;101842.91;;;11.31;77.51
57102;BME280;42982;54.558;18.508;2023-05-31T01:31:08;101846.19;;;11.33;77.50
57102;BME280;42982;54.558;18.508;2023-05-31T01:32:12;101843.75;;;11.32;77.48
57102;BME280;42982;54.558;18.508;2023-05-31T01:33:15;101845.59;;;11.31;77.09
57102;BME280;42982;54.558;18.508;2023-05-31T01:34:18;101847.75;;;11.29;77.32
57102;BME280;42982;54.558;18.508;2023-05-31T01:35:22;101847.69;;;11.24;76.61
57102;BME280;42982;54.558;18.508;2023-05-31T01:36:24;101837.91;;;11.18;77.13
57102;BME280;42982;54.558;18.508;2023-05-31T01:37:27;101840.06;;;11.16;77.06
57102;BME280;42982;54.558;18.508;2023-05-31T01:38:31;101844.88;;;11.14;77.07
57102;BME280;42982;54.558;18.508;2023-05-31T01:39:33;101838.91;;;11.12;77.02
57102;BME280;42982;54.558;18.508;2023-05-31T01:40:35;101839.72;;;11.12;77.11
57102;BME280;42982;54.558;18.508;2023-05-31T01:41:41;101847.56;;;11.14;76.84
57102;BME280;42982;54.558;18.508;2023-05-31T01:42:45;101834.69;;;11.16;76.68
57102;BME280;42982;54.558;18.508;2023-05-31T01:43:52;101842.19;;;11.14;76.85
57102;BME280;42982;54.558;18.508;2023-05-31T01:44:56;101840.56;;;11.13;76.80
57102;BME280;42982;54.558;18.508;2023-05-31T01:46:00;101837.59;;;11.14;76.52
57102;BME280;42982;54.558;18.508;2023-05-31T01:47:02;101833.84;;;11.16;76.74
57102;BME280;42982;54.558;18.508;2023-05-31T01:48:07;101844.38;;;11.17;76.52
57102;BME280;42982;54.558;18.508;2023-05-31T01:49:10;101838.41;;;11.15;76.46
57102;BME280;42982;54.558;18.508;2023-05-31T01:50:13;101838.38;;;11.10;76.30
57102;BME280;42982;54.558;18.508;2023-05-31T01:51:16;101837.50;;;11.04;76.72
57102;BME280;42982;54.558;18.508;2023-05-31T01:52:19;101840.41;;;11.03;76.29
57102;BME280;42982;54.558;18.508;2023-05-31T01:53:21;101839.38;;;11.04;76.71
57102;BME280;42982;54.558;18.508;2023-05-31T01:54:24;101838.78;;;11.02;76.95
57102;BME280;42982;54.558;18.508;2023-05-31T01:55:25;101835.84;;;11.03;76.70
57102;BME280;42982;54.558;18.508;2023-05-31T01:56:28;101838.78;;;11.02;76.47
57102;BME280;42982;54.558;18.508;2023-05-31T01:57:33;101836.09;;;11.02;76.53
57102;BME280;42982;54.558;18.508;2023-05-31T01:58:36;101836.69;;;11.04;77.00
57102;BME280;42982;54.558;18.508;2023-05-31T01:59:43;101837.28;;;11.11;77.42
57102;BME280;42982;54.558;18.508;2023-05-31T02:00:45;101836.22;;;11.12;76.97
57102;BME280;42982;54.558;18.508;2023-05-31T02:01:46;101831.91;;;11.11;76.91
57102;BME280;42982;54.558;18.508;2023-05-31T02:02:49;101837.28;;;11.11;76.61
57102;BME280;42982;54.558;18.508;2023-05-31T02:03:51;101833.53;;;11.12;76.72
57102;BME280;42982;54.558;18.508;2023-05-31T02:05:06;101839.09;;;11.05;76.45
57102;BME280;42982;54.558;18.508;2023-05-31T02:06:10;101832.91;;;11.05;76.69
57102;BME280;42982;54.558;18.508;2023-05-31T02:07:14;101834.00;;;11.04;77.14
57102;BME280;42982;54.558;18.508;2023-05-31T02:08:16;101840.41;;;11.03;76.58
57102;BME280;42982;54.558;18.508;2023-05-31T02:09:21;101835.59;;;11.05;76.93
57102;BME280;42982;54.558;18.508;2023-05-31T02:10:22;101836.69;;;11.04;76.95
57102;BME280;42982;54.558;18.508;2023-05-31T02:11:25;101830.81;;;11.07;77.28
57102;BME280;42982;54.558;18.508;2023-05-31T02:12:30;101835.91;;;11.08;77.02
57102;BME280;42982;54.558;18.508;2023-05-31T02:13:31;101830.53;;;11.08;77.04
57102;BME280;42982;54.558;18.508;2023-05-31T02:14:35;101830.81;;;11.07;76.70
57102;BME280;42982;54.558;18.508;2023-05-31T02:15:37;101830.53;;;11.08;77.08
57102;BME280;42982;54.558;18.508;2023-05-31T02:16:42;101835.72;;;11.15;77.35
57102;BME280;42982;54.558;18.508;2023-05-31T02:17:44;101830.09;;;11.17;77.16
57102;BME280;42982;54.558;18.508;2023-05-31T02:18:45;101829.28;;;11.16;76.80
57102;BME280;42982;54.558;18.508;2023-05-31T02:19:46;101823.56;;;11.12;76.90
57102;BME280;42982;54.558;18.508;2023-05-31T02:20:49;101819.25;;;11.11;76.72
57102;BME280;42982;54.558;18.508;2023-05-31T02:21:53;101827.66;;;11.15;77.44
57102;BME280;42982;54.558;18.508;2023-05-31T02:22:55;101823.91;;;11.16;77.06
57102;BME280;42982;54.558;18.508;2023-05-31T02:23:57;101826.34;;;11.18;76.90
57102;BME280;42982;54.558;18.508;2023-05-31T02:25:03;101828.59;;;11.26;77.18
57102;BME280;42982;54.558;18.508;2023-05-31T02:26:06;101816.50;;;11.28;76.62
57102;BME280;42982;54.558;18.508;2023-05-31T02:27:08;101826.22;;;11.29;76.46
57102;BME280;42982;54.558;18.508;2023-05-31T02:28:09;101829.13;;;11.28;76.46
57102;BME280;42982;54.558;18.508;2023-05-31T02:29:12;101828.59;;;11.26;76.59
57102;BME280;42982;54.558;18.508;2023-05-31T02:30:14;101825.34;;;11.24;76.82
57102;BME280;42982;54.558;18.508;2023-05-31T02:31:18;101826.66;;;11.21;76.26
57102;BME280;42982;54.558;18.508;2023-05-31T02:32:23;101822.34;;;11.20;76.94
57102;BME280;42982;54.558;18.508;2023-05-31T02:33:24;101827.75;;;11.25;76.79
57102;BME280;42982;54.558;18.508;2023-05-31T02:34:26;101831.03;;;11.27;76.50
57102;BME280;42982;54.558;18.508;2023-05-31T02:35:28;101828.41;;;11.32;76.41
57102;BME280;42982;54.558;18.508;2023-05-31T02:36:31;101820.88;;;11.34;76.46
57102;BME280;42982;54.558;18.508;2023-05-31T02:37:32;101830.53;;;11.30;76.63
57102;BME280;42982;54.558;18.508;2023-05-31T02:38:34;101824.31;;;11.30;76.82
57102;BME280;42982;54.558;18.508;2023-05-31T02:39:36;101817.00;;;11.25;76.50
57102;BME280;42982;54.558;18.508;2023-05-31T02:40:40;101830.81;;;11.34;76.53
57102;BME280;42982;54.558;18.508;2023-05-31T02:41:42;101834.41;;;11.40;76.71
57102;BME280;42982;54.558;18.508;2023-05-31T02:42:48;101829.81;;;11.40;76.35
57102;BME280;42982;54.558;18.508;2023-05-31T02:43:51;101835.00;;;11.47;75.95
57102;BME280;42982;54.558;18.508;2023-05-31T02:44:53;101826.94;;;11.47;75.74
57102;BME280;42982;54.558;18.508;2023-05-31T02:45:55;101821.81;;;11.45;75.18
57102;BME280;42982;54.558;18.508;2023-05-31T02:46:56;101823.56;;;11.34;75.46
57102;BME280;42982;54.558;18.508;2023-05-31T02:47:58;101823.53;;;11.29;74.83
57102;BME280;42982;54.558;18.508;2023-05-31T02:49:03;101824.22;;;11.20;75.03
57102;BME280;42982;54.558;18.508;2023-05-31T02:50:08;101826.03;;;11.14;75.05
57102;BME280;42982;54.558;18.508;2023-05-31T02:51:16;101829.72;;;11.08;75.08
57102;BME280;42982;54.558;18.508;2023-05-31T02:52:43;101829.66;;;11.03;75.90
57102;BME280;42982;54.558;18.508;2023-05-31T02:54:02;101826.16;;;11.02;75.86
57102;BME280;42982;54.558;18.508;2023-05-31T02:55:05;101823.78;;;11.06;76.21
57102;BME280;42982;54.558;18.508;2023-05-31T02:56:16;101827.59;;;11.10;76.02
57102;BME280;42982;54.558;18.508;2023-05-31T02:57:35;101821.66;;;11.08;75.99
57102;BME280;42982;54.558;18.508;2023-05-31T02:58:37;101822.22;;;11.10;76.19
57102;BME280;42982;54.558;18.508;2023-05-31T03:00:02;101829.22;;;11.11;75.94
57102;BME280;42982;54.558;18.508;2023-05-31T03:01:11;101827.34;;;11.11;75.82
57102;BME280;42982;54.558;18.508;2023-05-31T03:02:23;101823.34;;;11.14;75.99
57102;BME280;42982;54.558;18.508;2023-05-31T03:03:43;101820.72;;;11.19;76.13
57102;BME280;42982;54.558;18.508;2023-05-31T03:04:56;101818.38;;;11.28;76.71
57102;BME280;42982;54.558;18.508;2023-05-31T03:05:59;101813.88;;;11.33;76.40
57102;BME280;42982;54.558;18.508;2023-05-31T03:07:01;101808.28;;;11.40;76.41
57102;BME280;42982;54.558;18.508;2023-05-31T03:08:06;101815.91;;;11.48;76.33
57102;BME280;42982;54.558;18.508;2023-05-31T03:09:08;101813.53;;;11.52;76.45
57102;BME280;42982;54.558;18.508;2023-05-31T03:10:10;101814.63;;;11.56;76.45
57102;BME280;42982;54.558;18.508;2023-05-31T03:11:13;101814.69;;;11.61;76.19
57102;BME280;42982;54.558;18.508;2023-05-31T03:12:15;101813.13;;;11.65;76.35
57102;BME280;42982;54.558;18.508;2023-05-31T03:13:17;101813.13;;;11.65;76.24
57102;BME280;42982;54.558;18.508;2023-05-31T03:14:19;101813.13;;;11.65;75.78
57102;BME280;42982;54.558;18.508;2023-05-31T03:15:23;101800.22;;;11.67;75.73
57102;BME280;42982;54.558;18.508;2023-05-31T03:16:26;101808.09;;;11.74;75.87
57102;BME280;42982;54.558;18.508;2023-05-31T03:17:28;101805.41;;;11.79;75.90
57102;BME280;42982;54.558;18.508;2023-05-31T03:18:29;101804.09;;;11.81;75.77
57102;BME280;42982;54.558;18.508;2023-05-31T03:19:36;101810.84;;;11.84;75.38
57102;BME280;42982;54.558;18.508;2023-05-31T03:20:41;101814.97;;;11.87;75.43
57102;BME280;42982;54.558;18.508;2023-05-31T03:21:47;101810.94;;;11.89;75.05
57102;BME280;42982;54.558;18.508;2023-05-31T03:22:48;101805.84;;;11.93;75.06
57102;BME280;42982;54.558;18.508;2023-05-31T03:23:50;101806.66;;;11.93;75.16
57102;BME280;42982;54.558;18.508;2023-05-31T03:24:52;101801.56;;;11.97;75.19
57102;BME280;42982;54.558;18.508;2023-05-31T03:25:54;101805.34;;;11.96;74.68
57102;BME280;42982;54.558;18.508;2023-05-31T03:26:58;101804.25;;;11.97;74.82
57102;BME280;42982;54.558;18.508;2023-05-31T03:28:01;101802.94;;;11.99;74.91
57102;BME280;42982;54.558;18.508;2023-05-31T03:29:05;101804.31;;;12.02;74.35
57102;BME280;42982;54.558;18.508;2023-05-31T03:30:10;101801.63;;;12.07;74.60
57102;BME280;42982;54.558;18.508;2023-05-31T03:31:22;101802.25;;;12.14;74.57
57102;BME280;42982;54.558;18.508;2023-05-31T03:32:25;101800.66;;;12.18;74.04
57102;BME280;42982;54.558;18.508;2023-05-31T03:33:29;101795.00;;;12.20;73.85
57102;BME280;42982;54.558;18.508;2023-05-31T03:34:32;101806.09;;;12.23;73.58
57102;BME280;42982;54.558;18.508;2023-05-31T03:35:33;101796.66;;;12.26;73.48
57102;BME280;42982;54.558;18.508;2023-05-31T03:36:39;101793.19;;;12.31;73.08
57102;BME280;42982;54.558;18.508;2023-05-31T03:38:01;101792.41;;;12.35;73.07
57102;BME280;42982;54.558;18.508;2023-05-31T03:39:05;101794.34;;;12.40;72.57
57102;BME280;42982;54.558;18.508;2023-05-31T03:40:09;101787.63;;;12.42;72.51
57102;BME280;42982;54.558;18.508;2023-05-31T03:41:13;101787.91;;;12.46;72.54
57102;BME280;42982;54.558;18.508;2023-05-31T03:42:16;101789.00;;;12.50;72.28
57102;BME280;42982;54.558;18.508;2023-05-31T03:43:18;101790.09;;;12.54;72.14
57102;BME280;42982;54.558;18.508;2023-05-31T03:44:20;101787.94;;;12.56;72.17
57102;BME280;42982;54.558;18.508;2023-05-31T03:45:22;101782.31;;;12.63;72.14
57102;BME280;42982;54.558;18.508;2023-05-31T03:46:27;101784.78;;;12.64;71.78
57102;BME280;42982;54.558;18.508;2023-05-31T03:47:29;101781.00;;;12.65;72.00
57102;BME280;42982;54.558;18.508;2023-05-31T03:48:31;101782.06;;;12.69;71.67
57102;BME280;42982;54.558;18.508;2023-05-31T03:49:33;101783.16;;;12.73;71.74
57102;BME280;42982;54.558;18.508;2023-05-31T03:50:35;101789.69;;;12.78;71.62
57102;BME280;42982;54.558;18.508;2023-05-31T03:51:38;101783.75;;;12.81;71.71
57102;BME280;42982;54.558;18.508;2023-05-31T03:52:41;101789.44;;;12.84;71.57
57102;BME280;42982;54.558;18.508;2023-05-31T03:53:42;101788.38;;;12.90;71.28
57102;BME280;42982;54.558;18.508;2023-05-31T03:54:45;101790.81;;;12.92;71.21
57102;BME280;42982;54.558;18.508;2023-05-31T03:55:49;101784.88;;;12.95;71.11
57102;BME280;42982;54.558;18.508;2023-05-31T03:56:53;101787.06;;;12.98;71.00
57102;BME280;42982;54.558;18.508;2023-05-31T03:57:58;101785.47;;;13.07;70.78
57102;BME280;42982;54.558;18.508;2023-05-31T03:59:00;101787.13;;;13.13;70.65
57102;BME280;42982;54.558;18.508;2023-05-31T04:00:02;101781.47;;;13.20;70.41
57102;BME280;42982;54.558;18.508;2023-05-31T04:01:05;101783.41;;;13.25;69.87
57102;BME280;42982;54.558;18.508;2023-05-31T04:02:07;101773.41;;;13.25;69.56
57102;BME280;42982;54.558;18.508;2023-05-31T04:03:12;101771.00;;;13.34;69.53
57102;BME280;42982;54.558;18.508;2023-05-31T04:04:14;101772.91;;;13.38;68.78
57102;BME280;42982;54.558;18.508;2023-05-31T04:05:16;101773.72;;;13.54;68.47
57102;BME280;42982;54.558;18.508;2023-05-31T04:06:18;101774.28;;;13.72;67.83
57102;BME280;42982;54.558;18.508;2023-05-31T04:07:19;101772.66;;;13.86;67.24
57102;BME280;42982;54.558;18.508;2023-05-31T04:08:21;101773.75;;;14.00;66.75
57102;BME280;42982;54.558;18.508;2023-05-31T04:09:26;101767.53;;;14.10;66.33
57102;BME280;42982;54.558;18.508;2023-05-31T04:10:29;101770.22;;;14.25;66.18
57102;BME280;42982;54.558;18.508;2023-05-31T04:11:30;101768.28;;;14.36;65.94
57102;BME280;42982;54.558;18.508;2023-05-31T04:12:32;101766.09;;;14.43;65.28
57102;BME280;42982;54.558;18.508;2023-05-31T04:13:34;101765.53;;;14.46;64.86
57102;BME280;42982;54.558;18.508;2023-05-31T04:14:36;101765.56;;;14.56;64.93
57102;BME280;42982;54.558;18.508;2023-05-31T04:15:38;101758.75;;;14.64;64.75
57102;BME280;42982;54.558;18.508;2023-05-31T04:16:40;101763.88;;;14.71;64.35
57102;BME280;42982;54.558;18.508;2023-05-31T04:17:42;101758.44;;;14.76;64.25
57102;BME280;42982;54.558;18.508;2023-05-31T04:18:46;101759.50;;;14.80;63.97
57102;BME280;42982;54.558;18.508;2023-05-31T04:19:50;101761.13;;;14.81;63.71
57102;BME280;42982;54.558;18.508;2023-05-31T04:20:51;101757.34;;;14.82;63.58
57102;BME280;42982;54.558;18.508;2023-05-31T04:21:53;101754.09;;;14.80;63.64
57102;BME280;42982;54.558;18.508;2023-05-31T04:22:59;101756.25;;;14.78;63.23
57102;BME280;42982;54.558;18.508;2023-05-31T04:24:01;101752.72;;;14.82;63.67
57102;BME280;42982;54.558;18.508;2023-05-31T04:25:04;101749.72;;;14.84;63.60
57102;BME280;42982;54.558;18.508;2023-05-31T04:26:14;101749.72;;;14.89;63.18
57102;BME280;42982;54.558;18.508;2023-05-31T04:27:20;101754.59;;;14.87;62.83
57102;BME280;42982;54.558;18.508;2023-05-31T04:28:24;101753.47;;;14.93;63.06
57102;BME280;42982;54.558;18.508;2023-05-31T04:29:27;101748.06;;;14.93;62.11
57102;BME280;42982;54.558;18.508;2023-05-31T04:30:32;101748.31;;;14.97;61.98
57102;BME280;42982;54.558;18.508;2023-05-31T04:31:37;101751.28;;;15.00;61.48
57102;BME280;42982;54.558;18.508;2023-05-31T04:32:45;101743.69;;;14.97;61.83
57102;BME280;42982;54.558;18.508;2023-05-31T04:33:51;101745.59;;;14.97;62.08
57102;BME280;42982;54.558;18.508;2023-05-31T04:34:57;101742.06;;;15.01;61.75
57102;BME280;42982;54.558;18.508;2023-05-31T04:36:03;101746.38;;;15.07;61.52
57102;BME280;42982;54.558;18.508;2023-05-31T04:37:06;101744.47;;;15.08;61.17
57102;BME280;42982;54.558;18.508;2023-05-31T04:38:08;101738.75;;;15.15;60.98
57102;BME280;42982;54.558;18.508;2023-05-31T04:39:11;101737.88;;;15.19;60.76
57102;BME280;42982;54.558;18.508;2023-05-31T04:40:16;101747.91;;;15.24;60.79
57102;BME280;42982;54.558;18.508;2023-05-31T04:41:17;101738.91;;;15.28;60.47
57102;BME280;42982;54.558;18.508;2023-05-31T04:42:22;101727.75;;;15.35;60.34
57102;BME280;42982;54.558;18.508;2023-05-31T04:43:25;101732.06;;;15.41;60.70
57102;BME280;42982;54.558;18.508;2023-05-31T04:44:28;101732.31;;;15.45;60.22
57102;BME280;42982;54.558;18.508;2023-05-31T04:45:32;101739.59;;;15.49;59.89
57102;BME280;42982;54.558;18.508;2023-05-31T04:46:36;101737.97;;;15.48;59.64
57102;BME280;42982;54.558;18.508;2023-05-31T04:47:37;101736.28;;;15.58;59.51
57102;BME280;42982;54.558;18.508;2023-05-31T04:48:39;101735.09;;;15.74;59.46
57102;BME280;42982;54.558;18.508;2023-05-31T04:49:42;101731.16;;;15.90;58.48
57102;BME280;42982;54.558;18.508;2023-05-31T04:50:44;101735.75;;;16.19;58.44
57102;BME280;42982;54.558;18.508;2023-05-31T04:51:47;101732.53;;;16.41;57.62
57102;BME280;42982;54.558;18.508;2023-05-31T04:52:52;101736.03;;;16.65;57.03
57102;BME280;42982;54.558;18.508;2023-05-31T04:53:56;101737.72;;;16.85;56.18
57102;BME280;42982;54.558;18.508;2023-05-31T04:54:59;101735.22;;;17.08;55.79
57102;BME280;42982;54.558;18.508;2023-05-31T04:56:01;101728.47;;;17.24;54.95
57102;BME280;42982;54.558;18.508;2023-05-31T04:57:07;101733.59;;;17.45;54.46
57102;BME280;42982;54.558;18.508;2023-05-31T04:58:09;101731.72;;;17.59;54.03
57102;BME280;42982;54.558;18.508;2023-05-31T04:59:12;101735.91;;;17.70;53.48
57102;BME280;42982;54.558;18.508;2023-05-31T05:00:15;101732.97;;;17.67;53.03
57102;BME280;42982;54.558;18.508;2023-05-31T05:01:39;101729.69;;;17.51;53.07
57102;BME280;42982;54.558;18.508;2023-05-31T05:02:46;101733.00;;;17.48;52.69
57102;BME280;42982;54.558;18.508;2023-05-31T05:03:49;101726.91;;;17.56;52.82
57102;BME280;42982;54.558;18.508;2023-05-31T05:04:57;101734.88;;;17.66;52.18
57102;BME280;42982;54.558;18.508;2023-05-31T05:06:01;101732.31;;;17.75;52.37
57102;BME280;42982;54.558;18.508;2023-05-31T05:07:06;101735.53;;;17.77;52.09
57102;BME280;42982;54.558;18.508;2023-05-31T05:08:08;101734.19;;;17.74;52.03
57102;BME280;42982;54.558;18.508;2023-05-31T05:09:12;101731.06;;;17.67;51.33
57102;BME280;42982;54.558;18.508;2023-05-31T05:10:17;101733.25;;;17.65;51.49
57102;BME280;42982;54.558;18.508;2023-05-31T05:11:18;101731.66;;;17.64;51.78
57102;BME280;42982;54.558;18.508;2023-05-31T05:12:21;101724.41;;;17.59;52.08
57102;BME280;42982;54.558;18.508;2023-05-31T05:13:24;101725.38;;;17.50;52.07
57102;BME280;42982;54.558;18.508;2023-05-31T05:14:30;101716.78;;;17.24;51.79
57102;BME280;42982;54.558;18.508;2023-05-31T05:15:32;101726.69;;;17.14;51.95
57102;BME280;42982;54.558;18.508;2023-05-31T05:16:34;101720.56;;;17.09;52.50
57102;BME280;42982;54.558;18.508;2023-05-31T05:17:39;101725.47;;;17.07;53.13
57102;BME280;42982;54.558;18.508;2023-05-31T05:18:46;101725.75;;;17.05;52.66
57102;BME280;42982;54.558;18.508;2023-05-31T05:19:49;101722.75;;;17.07;52.83
57102;BME280;42982;54.558;18.508;2023-05-31T05:20:51;101727.59;;;17.10;52.98
57102;BME280;42982;54.558;18.508;2023-05-31T05:21:58;101724.88;;;17.10;52.77
57102;BME280;42982;54.558;18.508;2023-05-31T05:23:01;101720.03;;;17.07;52.07
57102;BME280;42982;54.558;18.508;2023-05-31T05:24:10;101719.00;;;17.03;51.90
57102;BME280;42982;54.558;18.508;2023-05-31T05:25:12;101723.28;;;17.09;52.36
57102;BME280;42982;54.558;18.508;2023-05-31T05:26:15;101723.97;;;17.14;52.27
57102;BME280;42982;54.558;18.508;2023-05-31T05:27:16;101709.59;;;17.14;52.24
57102;BME280;42982;54.558;18.508;2023-05-31T05:28:20;101714.44;;;17.17;52.00
57102;BME280;42982;54.558;18.508;2023-05-31T05:29:26;101717.97;;;17.18;51.97
57102;BME280;42982;54.558;18.508;2023-05-31T05:30:28;101704.59;;;17.21;52.18
57102;BME280;42982;54.558;18.508;2023-05-31T05:31:29;101706.66;;;17.29;52.25
57102;BME280;42982;54.558;18.508;2023-05-31T05:32:36;101709.56;;;17.33;51.86
57102;BME280;42982;54.558;18.508;2023-05-31T05:33:40;101703.75;;;17.40;52.11
57102;BME280;42982;54.558;18.508;2023-05-31T05:34:42;101696.53;;;17.49;51.89
57102;BME280;42982;54.558;18.508;2023-05-31T05:35:46;101695.94;;;17.52;50.99
57102;BME280;42982;54.558;18.508;2023-05-31T05:36:48;101703.22;;;17.56;50.58
57102;BME280;42982;54.558;18.508;2023-05-31T05:37:50;101702.63;;;17.59;50.42